Terminal Aerodrome Forecast
Issued by NWS Des Moines, IA

Home | Current Version | Previous Version | Text Only | Print | Product List | Glossary On
Versions: 1 2 3 4 5 6 7 8 9 10 11 12 13 14 15 16 17 18 19 20 21 22 23 24 25 26 27 28 29 30 31 32 33 34 35 36 37 38 39 40 41
000
FTUS43 KDMX 301130 AAA
TAFALO
TAF AMD
KALO 301130Z 3012/3112 06015G22KT P6SM OVC009
      TEMPO 3012/3014 OVC010
     FM301400 05015G22KT P6SM VCSH OVC010
     FM310000 03014G20KT P6SM OVC020
     FM310500 01012KT P6SM OVC025=

USA.gov is the U.S. government's official web portal to all federal, state and local government web resources and services.